< < Back
Terminal Aerodrome Forecast


Current Version              Previous Versions:   1  2  3  4  5  6  7  8  9  

Terminal Aerodrome Forecast

214
FTUS42 KTAE 280532
TAFVLD
TAF
KVLD 280532Z 2806/2906 VRB04KT P6SM SCT040
     FM282000 23005KT P6SM VCTS BKN050CB
     FM290200 VRB03KT P6SM BKN250=



Latest METAR

056
SAUS70 KWBC 281500 RRK
MTRVLD
METAR KVLD 281453Z VRB03KT 10SM CLR 31/24 A3000 RMK AO2 SLP165 T03110239
50003


USA.gov is the U.S. government's official web portal to all federal, state and local government web resources and services.